ADDS TAF Data INFO
IDs: Format: Raw Decoded Include METARs

Data at: 0425 UTC 21 Jan 2018

KDDC 210352Z AUTO 04007KT 10SM CLR 02/M07 A2969 RMK AO2 SLP063 T00171067

KDDC 202320Z 2100/2124 13007KT P6SM SKC
  FM210600 01009KT P6SM SCT020
  FM210900 03009KT 3/4SM BR OVC006
  FM211400 01009KT 1/2SM FG OVC003
  FM211700 06009KT 5SM BR OVC003
  FM212300 32018G28KT P6SM OVC050